sensor_id;sensor_type;location;lat;lon;timestamp;pressure;altitude;pressure_sealevel;temperature;humidity
34124;BME280;13153;52.316;21.166;2022-12-07T00:01:31;99671.06;;;6.34;65.38
34124;BME280;13153;52.316;21.166;2022-12-07T00:03:59;99665.84;;;6.34;64.87
34124;BME280;13153;52.316;21.166;2022-12-07T00:06:46;99670.25;;;6.37;65.32
34124;BME280;13153;52.316;21.166;2022-12-07T00:09:17;99673.81;;;6.39;65.25
34124;BME280;13153;52.316;21.166;2022-12-07T00:11:45;99667.69;;;6.38;65.49
34124;BME280;13153;52.316;21.166;2022-12-07T00:14:15;99659.81;;;6.37;65.25
34124;BME280;13153;52.316;21.166;2022-12-07T00:16:43;99659.84;;;6.38;65.17
34124;BME280;13153;52.316;21.166;2022-12-07T00:19:11;99655.50;;;6.39;65.46
34124;BME280;13153;52.316;21.166;2022-12-07T00:21:37;99648.56;;;6.39;65.53
34124;BME280;13153;52.316;21.166;2022-12-07T00:24:05;99656.44;;;6.41;65.56
34124;BME280;13153;52.316;21.166;2022-12-07T00:26:35;99657.38;;;6.43;65.14
34124;BME280;13153;52.316;21.166;2022-12-07T00:29:09;99655.66;;;6.43;65.38
34124;BME280;13153;52.316;21.166;2022-12-07T00:31:37;99645.22;;;6.43;65.31
34124;BME280;13153;52.316;21.166;2022-12-07T00:34:09;99647.88;;;6.45;65.23
34124;BME280;13153;52.316;21.166;2022-12-07T00:36:37;99653.13;;;6.46;65.66
34124;BME280;13153;52.316;21.166;2022-12-07T00:39:03;99649.63;;;6.46;65.42
34124;BME280;13153;52.316;21.166;2022-12-07T00:41:30;99644.41;;;6.46;65.67
34124;BME280;13153;52.316;21.166;2022-12-07T00:43:56;99645.31;;;6.46;65.03
34124;BME280;13153;52.316;21.166;2022-12-07T00:46:23;99647.91;;;6.46;65.17
34124;BME280;13153;52.316;21.166;2022-12-07T00:48:51;99644.41;;;6.46;65.79
34124;BME280;13153;52.316;21.166;2022-12-07T00:51:21;99640.91;;;6.45;65.23
34124;BME280;13153;52.316;21.166;2022-12-07T00:53:48;99645.34;;;6.48;65.51
34124;BME280;13153;52.316;21.166;2022-12-07T00:56:24;99647.91;;;6.46;65.15
34124;BME280;13153;52.316;21.166;2022-12-07T00:58:59;99646.13;;;6.45;65.27
34124;BME280;13153;52.316;21.166;2022-12-07T01:01:29;99644.38;;;6.44;65.43
34124;BME280;13153;52.316;21.166;2022-12-07T01:03:55;99643.53;;;6.45;65.52
34124;BME280;13153;52.316;21.166;2022-12-07T01:06:23;99642.63;;;6.45;65.29
34124;BME280;13153;52.316;21.166;2022-12-07T01:08:49;99647.88;;;6.45;65.55
34124;BME280;13153;52.316;21.166;2022-12-07T01:11:20;99641.84;;;6.47;65.45
34124;BME280;13153;52.316;21.166;2022-12-07T01:13:50;99640.91;;;6.45;65.44
34124;BME280;13153;52.316;21.166;2022-12-07T01:16:16;99646.19;;;6.47;66.02
34124;BME280;13153;52.316;21.166;2022-12-07T01:18:47;99642.72;;;6.48;65.63
34124;BME280;13153;52.316;21.166;2022-12-07T01:21:20;99644.41;;;6.46;65.52
34124;BME280;13153;52.316;21.166;2022-12-07T01:23:46;99640.06;;;6.46;65.68
34124;BME280;13153;52.316;21.166;2022-12-07T01:26:16;99638.31;;;6.45;65.65
34124;BME280;13153;52.316;21.166;2022-12-07T01:28:42;99639.97;;;6.43;65.53
34124;BME280;13153;52.316;21.166;2022-12-07T01:31:12;99638.22;;;6.42;65.45
34124;BME280;13153;52.316;21.166;2022-12-07T01:33:42;99639.88;;;6.40;65.92
34124;BME280;13153;52.316;21.166;2022-12-07T01:38:48;99638.94;;;6.38;65.74
34124;BME280;13153;52.316;21.166;2022-12-07T01:41:17;99637.22;;;6.39;65.14
34124;BME280;13153;52.316;21.166;2022-12-07T01:44:09;99633.69;;;6.37;64.99
34124;BME280;13153;52.316;21.166;2022-12-07T01:46:36;99630.22;;;6.38;65.66
34124;BME280;13153;52.316;21.166;2022-12-07T01:49:05;99638.94;;;6.38;65.67
34124;BME280;13153;52.316;21.166;2022-12-07T01:51:31;99631.91;;;6.36;65.15
34124;BME280;13153;52.316;21.166;2022-12-07T01:53:58;99632.78;;;6.36;65.37
34124;BME280;13153;52.316;21.166;2022-12-07T01:56:27;99632.78;;;6.36;65.66
34124;BME280;13153;52.316;21.166;2022-12-07T01:58:56;99631.06;;;6.37;65.26
34124;BME280;13153;52.316;21.166;2022-12-07T02:01:23;99621.44;;;6.36;65.66
34124;BME280;13153;52.316;21.166;2022-12-07T02:03:49;99627.56;;;6.35;65.82
34124;BME280;13153;52.316;21.166;2022-12-07T02:06:21;99623.16;;;6.34;65.61
34124;BME280;13153;52.316;21.166;2022-12-07T02:08:48;99618.78;;;6.33;65.22
34124;BME280;13153;52.316;21.166;2022-12-07T02:11:15;99615.31;;;6.34;65.79
34124;BME280;13153;52.316;21.166;2022-12-07T02:13:43;99615.38;;;6.35;65.36
34124;BME280;13153;52.316;21.166;2022-12-07T02:16:42;99610.22;;;6.38;65.42
34124;BME280;13153;52.316;21.166;2022-12-07T02:22:49;99605.88;;;6.39;65.41
34124;BME280;13153;52.316;21.166;2022-12-07T02:30:48;99598.19;;;6.43;65.53
34124;BME280;13153;52.316;21.166;2022-12-07T02:33:56;99600.84;;;6.45;65.61
34124;BME280;13153;52.316;21.166;2022-12-07T02:36:37;99593.94;;;6.47;66.17
34124;BME280;13153;52.316;21.166;2022-12-07T02:39:18;99590.34;;;6.43;66.31
34124;BME280;13153;52.316;21.166;2022-12-07T02:41:59;99598.25;;;6.46;66.34
34124;BME280;13153;52.316;21.166;2022-12-07T02:44:30;99596.53;;;6.47;66.11
34124;BME280;13153;52.316;21.166;2022-12-07T02:47:12;99587.91;;;6.49;66.49
34124;BME280;13153;52.316;21.166;2022-12-07T02:49:40;99583.63;;;6.51;66.88
34124;BME280;13153;52.316;21.166;2022-12-07T02:52:06;99588.13;;;6.57;66.79
34124;BME280;13153;52.316;21.166;2022-12-07T02:54:32;99580.44;;;6.61;66.91
34124;BME280;13153;52.316;21.166;2022-12-07T02:57:27;99583.09;;;6.63;66.76
34124;BME280;13153;52.316;21.166;2022-12-07T03:00:09;99575.28;;;6.65;66.99
34124;BME280;13153;52.316;21.166;2022-12-07T03:03:04;99580.47;;;6.63;67.08
34124;BME280;13153;52.316;21.166;2022-12-07T03:08:54;99585.78;;;6.66;66.83
34124;BME280;13153;52.316;21.166;2022-12-07T03:11:45;99585.84;;;6.68;67.12
34124;BME280;13153;52.316;21.166;2022-12-07T03:14:30;99578.94;;;6.70;66.96
34124;BME280;13153;52.316;21.166;2022-12-07T03:17:27;99568.53;;;6.71;66.86
34124;BME280;13153;52.316;21.166;2022-12-07T03:20:00;99570.19;;;6.69;66.43
34124;BME280;13153;52.316;21.166;2022-12-07T03:22:31;99571.97;;;6.70;66.83
34124;BME280;13153;52.316;21.166;2022-12-07T03:25:05;99580.66;;;6.69;66.48
34124;BME280;13153;52.316;21.166;2022-12-07T03:28:04;99582.38;;;6.69;66.80
34124;BME280;13153;52.316;21.166;2022-12-07T03:30:59;99580.69;;;6.71;66.77
34124;BME280;13153;52.316;21.166;2022-12-07T03:33:34;99570.78;;;6.59;67.08
34124;BME280;13153;52.316;21.166;2022-12-07T03:36:08;99564.56;;;6.55;66.81
34124;BME280;13153;52.316;21.166;2022-12-07T03:39:00;99569.22;;;6.66;67.00
34124;BME280;13153;52.316;21.166;2022-12-07T03:41:31;99563.28;;;6.71;66.58
34124;BME280;13153;52.316;21.166;2022-12-07T03:44:00;99562.50;;;6.74;66.40
34124;BME280;13153;52.316;21.166;2022-12-07T03:46:41;99562.53;;;6.75;66.05
34124;BME280;13153;52.316;21.166;2022-12-07T03:52:21;99553.81;;;6.75;66.40
34124;BME280;13153;52.316;21.166;2022-12-07T03:55:02;99555.44;;;6.71;66.48
34124;BME280;13153;52.316;21.166;2022-12-07T03:57:34;99553.72;;;6.72;66.67
34124;BME280;13153;52.316;21.166;2022-12-07T04:00:06;99550.25;;;6.73;66.47
34124;BME280;13153;52.316;21.166;2022-12-07T04:02:33;99547.66;;;6.73;66.00
34124;BME280;13153;52.316;21.166;2022-12-07T04:04:59;99546.81;;;6.74;66.65
34124;BME280;13153;52.316;21.166;2022-12-07T04:07:25;99550.31;;;6.74;65.87
34124;BME280;13153;52.316;21.166;2022-12-07T04:09:51;99548.56;;;6.75;66.17
34124;BME280;13153;52.316;21.166;2022-12-07T04:12:17;99549.47;;;6.75;66.22
34124;BME280;13153;52.316;21.166;2022-12-07T04:14:43;99551.16;;;6.73;65.69
34124;BME280;13153;52.316;21.166;2022-12-07T04:17:08;99558.94;;;6.72;66.06
34124;BME280;13153;52.316;21.166;2022-12-07T04:19:34;99553.72;;;6.72;65.52
34124;BME280;13153;52.316;21.166;2022-12-07T04:22:03;99546.72;;;6.71;65.59
34124;BME280;13153;52.316;21.166;2022-12-07T04:24:29;99561.53;;;6.70;65.63
34124;BME280;13153;52.316;21.166;2022-12-07T04:26:55;99555.41;;;6.70;66.04
34124;BME280;13153;52.316;21.166;2022-12-07T04:29:22;99551.94;;;6.71;65.94
34124;BME280;13153;52.316;21.166;2022-12-07T04:31:49;99556.25;;;6.69;65.97
34124;BME280;13153;52.316;21.166;2022-12-07T04:34:17;99550.19;;;6.70;65.74
34124;BME280;13153;52.316;21.166;2022-12-07T04:36:43;99543.97;;;6.66;65.80
34124;BME280;13153;52.316;21.166;2022-12-07T04:39:37;99541.31;;;6.65;65.49
34124;BME280;13153;52.316;21.166;2022-12-07T04:42:03;99536.06;;;6.63;65.77
34124;BME280;13153;52.316;21.166;2022-12-07T04:44:30;99532.59;;;6.64;65.41
34124;BME280;13153;52.316;21.166;2022-12-07T04:46:56;99537.88;;;6.66;65.69
34124;BME280;13153;52.316;21.166;2022-12-07T04:49:24;99530.88;;;6.65;65.72
34124;BME280;13153;52.316;21.166;2022-12-07T04:51:50;99540.44;;;6.64;65.78
34124;BME280;13153;52.316;21.166;2022-12-07T04:54:17;99540.31;;;6.59;65.19
34124;BME280;13153;52.316;21.166;2022-12-07T04:56:43;99534.31;;;6.63;65.62
34124;BME280;13153;52.316;21.166;2022-12-07T04:59:15;99538.75;;;6.66;65.80
34124;BME280;13153;52.316;21.166;2022-12-07T05:01:42;99530.03;;;6.66;66.07
34124;BME280;13153;52.316;21.166;2022-12-07T05:04:08;99527.41;;;6.66;65.42
34124;BME280;13153;52.316;21.166;2022-12-07T05:06:34;99533.47;;;6.65;65.97
34124;BME280;13153;52.316;21.166;2022-12-07T05:09:01;99530.81;;;6.63;65.69
34124;BME280;13153;52.316;21.166;2022-12-07T05:11:27;99527.31;;;6.62;65.87
34124;BME280;13153;52.316;21.166;2022-12-07T05:14:16;99529.94;;;6.62;65.60
34124;BME280;13153;52.316;21.166;2022-12-07T05:16:44;99525.56;;;6.61;65.85
34124;BME280;13153;52.316;21.166;2022-12-07T05:19:10;99521.22;;;6.62;65.78
34124;BME280;13153;52.316;21.166;2022-12-07T05:21:37;99522.97;;;6.63;65.57
34124;BME280;13153;52.316;21.166;2022-12-07T05:24:04;99519.47;;;6.62;65.86
34124;BME280;13153;52.316;21.166;2022-12-07T05:26:31;99527.31;;;6.62;66.02
34124;BME280;13153;52.316;21.166;2022-12-07T05:28:57;99522.88;;;6.60;65.99
34124;BME280;13153;52.316;21.166;2022-12-07T05:31:25;99515.94;;;6.60;65.67
34124;BME280;13153;52.316;21.166;2022-12-07T05:33:51;99515.91;;;6.59;65.17
34124;BME280;13153;52.316;21.166;2022-12-07T05:36:17;99517.56;;;6.57;65.23
34124;BME280;13153;52.316;21.166;2022-12-07T05:38:43;99520.19;;;6.57;65.72
34124;BME280;13153;52.316;21.166;2022-12-07T05:41:12;99517.66;;;6.60;65.64
34124;BME280;13153;52.316;21.166;2022-12-07T05:43:58;99519.44;;;6.61;65.62
34124;BME280;13153;52.316;21.166;2022-12-07T05:46:24;99520.31;;;6.61;65.04
34124;BME280;13153;52.316;21.166;2022-12-07T05:48:50;99519.41;;;6.59;65.32
34124;BME280;13153;52.316;21.166;2022-12-07T05:51:16;99529.00;;;6.60;65.18
34124;BME280;13153;52.316;21.166;2022-12-07T05:53:42;99528.91;;;6.57;64.57
34124;BME280;13153;52.316;21.166;2022-12-07T05:56:07;99533.97;;;6.51;64.39
34124;BME280;13153;52.316;21.166;2022-12-07T05:58:33;99525.16;;;6.48;64.96
34124;BME280;13153;52.316;21.166;2022-12-07T06:01:17;99523.34;;;6.45;65.04
34124;BME280;13153;52.316;21.166;2022-12-07T06:03:43;99521.56;;;6.44;64.74
34124;BME280;13153;52.316;21.166;2022-12-07T06:06:10;99525.84;;;6.42;65.08
34124;BME280;13153;52.316;21.166;2022-12-07T06:08:36;99524.03;;;6.40;64.90
34124;BME280;13153;52.316;21.166;2022-12-07T06:11:01;99526.56;;;6.35;64.99
34124;BME280;13153;52.316;21.166;2022-12-07T06:13:46;99518.66;;;6.34;65.24
34124;BME280;13153;52.316;21.166;2022-12-07T06:16:11;99522.06;;;6.31;65.03
34124;BME280;13153;52.316;21.166;2022-12-07T06:18:37;99524.75;;;6.33;64.88
34124;BME280;13153;52.316;21.166;2022-12-07T06:21:03;99528.28;;;6.35;65.28
34124;BME280;13153;52.316;21.166;2022-12-07T06:23:29;99528.28;;;6.36;64.78
34124;BME280;13153;52.316;21.166;2022-12-07T06:25:55;99519.66;;;6.39;64.87
34124;BME280;13153;52.316;21.166;2022-12-07T06:28:20;99519.69;;;6.40;65.34
34124;BME280;13153;52.316;21.166;2022-12-07T06:30:46;99518.91;;;6.43;65.57
34124;BME280;13153;52.316;21.166;2022-12-07T06:33:12;99516.22;;;6.40;65.39
34124;BME280;13153;52.316;21.166;2022-12-07T06:35:37;99511.88;;;6.40;65.14
34124;BME280;13153;52.316;21.166;2022-12-07T06:38:03;99517.09;;;6.40;64.95
34124;BME280;13153;52.316;21.166;2022-12-07T06:40:29;99515.31;;;6.39;64.90
34124;BME280;13153;52.316;21.166;2022-12-07T06:42:55;99510.94;;;6.38;65.04
34124;BME280;13153;52.316;21.166;2022-12-07T06:45:20;99516.94;;;6.34;65.00
34124;BME280;13153;52.316;21.166;2022-12-07T06:47:46;99514.34;;;6.34;64.87
34124;BME280;13153;52.316;21.166;2022-12-07T06:50:12;99511.69;;;6.33;64.73
34124;BME280;13153;52.316;21.166;2022-12-07T06:52:37;99513.41;;;6.32;64.55
34124;BME280;13153;52.316;21.166;2022-12-07T06:55:03;99509.94;;;6.33;64.66
34124;BME280;13153;52.316;21.166;2022-12-07T06:57:29;99507.38;;;6.35;65.14
34124;BME280;13153;52.316;21.166;2022-12-07T06:59:55;99506.41;;;6.31;64.61
34124;BME280;13153;52.316;21.166;2022-12-07T07:02:21;99512.47;;;6.30;64.97
34124;BME280;13153;52.316;21.166;2022-12-07T07:04:46;99512.47;;;6.30;64.58
34124;BME280;13153;52.316;21.166;2022-12-07T07:07:12;99509.81;;;6.28;64.89
34124;BME280;13153;52.316;21.166;2022-12-07T07:09:38;99507.94;;;6.24;64.87
34124;BME280;13153;52.316;21.166;2022-12-07T07:12:04;99515.75;;;6.23;64.88
34124;BME280;13153;52.316;21.166;2022-12-07T07:14:29;99509.63;;;6.22;65.42
34124;BME280;13153;52.316;21.166;2022-12-07T07:16:55;99511.72;;;6.34;65.90
34124;BME280;13153;52.316;21.166;2022-12-07T07:19:21;99510.88;;;6.35;65.58
34124;BME280;13153;52.316;21.166;2022-12-07T07:21:47;99509.09;;;6.34;64.70
34124;BME280;13153;52.316;21.166;2022-12-07T07:24:12;99514.25;;;6.31;64.58
34124;BME280;13153;52.316;21.166;2022-12-07T07:26:38;99510.78;;;6.32;65.25
34124;BME280;13153;52.316;21.166;2022-12-07T07:29:04;99516.00;;;6.32;65.17
34124;BME280;13153;52.316;21.166;2022-12-07T07:31:30;99517.78;;;6.33;64.80
34124;BME280;13153;52.316;21.166;2022-12-07T07:33:56;99507.25;;;6.30;64.61
34124;BME280;13153;52.316;21.166;2022-12-07T07:36:21;99510.69;;;6.29;64.86
34124;BME280;13153;52.316;21.166;2022-12-07T07:38:47;99513.31;;;6.29;64.58
34124;BME280;13153;52.316;21.166;2022-12-07T07:41:13;99517.69;;;6.30;64.81
34124;BME280;13153;52.316;21.166;2022-12-07T07:43:38;99507.25;;;6.30;64.98
34124;BME280;13153;52.316;21.166;2022-12-07T07:46:04;99503.84;;;6.33;65.17
34124;BME280;13153;52.316;21.166;2022-12-07T07:48:30;99506.44;;;6.33;64.48
34124;BME280;13153;52.316;21.166;2022-12-07T07:50:56;99504.72;;;6.33;64.76
34124;BME280;13153;52.316;21.166;2022-12-07T07:53:21;99512.63;;;6.36;65.28
34124;BME280;13153;52.316;21.166;2022-12-07T07:55:54;99517.09;;;6.40;65.45
34124;BME280;13153;52.316;21.166;2022-12-07T07:58:21;99511.88;;;6.40;64.96
34124;BME280;13153;52.316;21.166;2022-12-07T08:00:46;99521.38;;;6.38;65.03
34124;BME280;13153;52.316;21.166;2022-12-07T08:03:12;99513.59;;;6.40;65.04
34124;BME280;13153;52.316;21.166;2022-12-07T08:05:38;99514.56;;;6.43;65.27
34124;BME280;13153;52.316;21.166;2022-12-07T08:08:04;99515.44;;;6.44;65.35
34124;BME280;13153;52.316;21.166;2022-12-07T08:10:30;99517.13;;;6.42;65.09
34124;BME280;13153;52.316;21.166;2022-12-07T08:12:58;99511.88;;;6.40;64.98
34124;BME280;13153;52.316;21.166;2022-12-07T08:15:38;99516.97;;;6.36;65.09
34124;BME280;13153;52.316;21.166;2022-12-07T08:18:05;99519.50;;;6.33;65.43
34124;BME280;13153;52.316;21.166;2022-12-07T08:20:33;99523.16;;;6.39;65.08
34124;BME280;13153;52.316;21.166;2022-12-07T08:22:59;99513.72;;;6.44;64.99
34124;BME280;13153;52.316;21.166;2022-12-07T08:25:26;99518.94;;;6.44;65.41
34124;BME280;13153;52.316;21.166;2022-12-07T08:27:52;99522.53;;;6.48;65.09
34124;BME280;13153;52.316;21.166;2022-12-07T08:30:19;99521.47;;;6.41;65.41
34124;BME280;13153;52.316;21.166;2022-12-07T08:32:46;99534.63;;;6.44;65.63
34124;BME280;13153;52.316;21.166;2022-12-07T08:35:13;99530.38;;;6.48;65.86
34124;BME280;13153;52.316;21.166;2022-12-07T08:37:38;99525.19;;;6.49;65.50
34124;BME280;13153;52.316;21.166;2022-12-07T08:40:07;99528.88;;;6.56;65.34
34124;BME280;13153;52.316;21.166;2022-12-07T08:42:33;99530.69;;;6.58;65.36
34124;BME280;13153;52.316;21.166;2022-12-07T08:45:14;99524.53;;;6.56;65.50
34124;BME280;13153;52.316;21.166;2022-12-07T08:48:05;99528.81;;;6.54;65.46
34124;BME280;13153;52.316;21.166;2022-12-07T08:50:32;99529.84;;;6.59;65.51
34124;BME280;13153;52.316;21.166;2022-12-07T08:52:59;99522.09;;;6.62;65.96
34124;BME280;13153;52.316;21.166;2022-12-07T08:55:27;99508.94;;;6.59;65.91
34124;BME280;13153;52.316;21.166;2022-12-07T08:57:54;99518.56;;;6.60;66.30
34124;BME280;13153;52.316;21.166;2022-12-07T09:00:20;99523.91;;;6.65;65.99
34124;BME280;13153;52.316;21.166;2022-12-07T09:02:46;99532.59;;;6.64;66.02
34124;BME280;13153;52.316;21.166;2022-12-07T09:05:12;99523.88;;;6.63;66.40
34124;BME280;13153;52.316;21.166;2022-12-07T09:07:43;99516.09;;;6.67;66.68
34124;BME280;13153;52.316;21.166;2022-12-07T09:10:10;99526.75;;;6.73;66.43
34124;BME280;13153;52.316;21.166;2022-12-07T09:12:36;99509.38;;;6.75;66.44
34124;BME280;13153;52.316;21.166;2022-12-07T09:15:02;99513.66;;;6.73;66.76
34124;BME280;13153;52.316;21.166;2022-12-07T09:17:32;99514.84;;;6.84;67.13
34124;BME280;13153;52.316;21.166;2022-12-07T09:19:59;99515.03;;;6.90;66.67
34124;BME280;13153;52.316;21.166;2022-12-07T09:22:32;99512.31;;;6.87;65.90
34124;BME280;13153;52.316;21.166;2022-12-07T09:24:59;99508.94;;;6.91;66.41
34124;BME280;13153;52.316;21.166;2022-12-07T09:27:26;99510.97;;;7.03;66.14
34124;BME280;13153;52.316;21.166;2022-12-07T09:29:52;99506.81;;;7.11;65.70
34124;BME280;13153;52.316;21.166;2022-12-07T09:32:17;99507.84;;;7.16;65.94
34124;BME280;13153;52.316;21.166;2022-12-07T09:34:43;99497.44;;;7.19;65.21
34124;BME280;13153;52.316;21.166;2022-12-07T09:37:09;99506.25;;;7.22;65.52
34124;BME280;13153;52.316;21.166;2022-12-07T09:39:38;99502.06;;;7.29;65.46
34124;BME280;13153;52.316;21.166;2022-12-07T09:42:05;99501.25;;;7.32;65.05
34124;BME280;13153;52.316;21.166;2022-12-07T09:44:34;99499.81;;;7.43;64.91
34124;BME280;13153;52.316;21.166;2022-12-07T09:47:01;99499.03;;;7.47;65.57
34124;BME280;13153;52.316;21.166;2022-12-07T09:49:31;99494.84;;;7.55;65.11
34124;BME280;13153;52.316;21.166;2022-12-07T09:52:27;99492.41;;;7.62;64.48
34124;BME280;13153;52.316;21.166;2022-12-07T09:54:53;99492.59;;;7.70;64.04
34124;BME280;13153;52.316;21.166;2022-12-07T09:57:31;99498.81;;;7.75;63.71
34124;BME280;13153;52.316;21.166;2022-12-07T10:00:06;99494.41;;;7.73;62.86
34124;BME280;13153;52.316;21.166;2022-12-07T10:02:43;99483.66;;;7.62;62.81
34124;BME280;13153;52.316;21.166;2022-12-07T10:05:26;99488.81;;;7.59;63.13
34124;BME280;13153;52.316;21.166;2022-12-07T10:07:53;99494.91;;;7.58;62.94
34124;BME280;13153;52.316;21.166;2022-12-07T10:10:32;99488.91;;;7.62;62.76
34124;BME280;13153;52.316;21.166;2022-12-07T10:15:56;99490.75;;;7.66;63.51
34124;BME280;13153;52.316;21.166;2022-12-07T10:18:36;99484.69;;;7.69;62.45
34124;BME280;13153;52.316;21.166;2022-12-07T10:21:12;99486.47;;;7.70;62.24
34124;BME280;13153;52.316;21.166;2022-12-07T10:26:34;99481.13;;;7.65;62.44
34124;BME280;13153;52.316;21.166;2022-12-07T10:32:31;99478.75;;;7.76;61.96
34124;BME280;13153;52.316;21.166;2022-12-07T10:35:29;99477.00;;;7.75;62.17
34124;BME280;13153;52.316;21.166;2022-12-07T10:37:59;99471.72;;;7.73;61.90
34124;BME280;13153;52.316;21.166;2022-12-07T10:40:32;99479.56;;;7.73;61.27
34124;BME280;13153;52.316;21.166;2022-12-07T10:55:11;99472.50;;;7.69;60.79
34124;BME280;13153;52.316;21.166;2022-12-07T11:03:39;99474.84;;;7.58;60.66
34124;BME280;13153;52.316;21.166;2022-12-07T11:06:33;99484.44;;;7.58;60.72
34124;BME280;13153;52.316;21.166;2022-12-07T11:09:16;99481.91;;;7.61;61.03
34124;BME280;13153;52.316;21.166;2022-12-07T11:12:33;99482.81;;;7.63;60.76
34124;BME280;13153;52.316;21.166;2022-12-07T11:15:17;99476.69;;;7.62;60.87
34124;BME280;13153;52.316;21.166;2022-12-07T11:21:41;99478.78;;;7.77;61.16
34124;BME280;13153;52.316;21.166;2022-12-07T11:24:17;99475.41;;;7.81;61.16
34124;BME280;13153;52.316;21.166;2022-12-07T11:30:19;99465.78;;;7.80;60.65
34124;BME280;13153;52.316;21.166;2022-12-07T11:33:06;99473.59;;;7.79;61.14
34124;BME280;13153;52.316;21.166;2022-12-07T11:38:17;99470.72;;;7.68;61.22
34124;BME280;13153;52.316;21.166;2022-12-07T11:40:49;99479.47;;;7.69;61.11
34124;BME280;13153;52.316;21.166;2022-12-07T11:43:26;99469.78;;;7.65;60.49
34124;BME280;13153;52.316;21.166;2022-12-07T11:46:08;99472.34;;;7.63;61.00
34124;BME280;13153;52.316;21.166;2022-12-07T11:48:55;99468.81;;;7.61;60.63
34124;BME280;13153;52.316;21.166;2022-12-07T11:51:25;99457.41;;;7.59;60.89
34124;BME280;13153;52.316;21.166;2022-12-07T11:53:57;99463.56;;;7.61;60.76
34124;BME280;13153;52.316;21.166;2022-12-07T11:56:27;99460.19;;;7.65;61.00
34124;BME280;13153;52.316;21.166;2022-12-07T11:59:04;99454.19;;;7.71;60.95
34124;BME280;13153;52.316;21.166;2022-12-07T12:01:55;99453.28;;;7.69;60.41
34124;BME280;13153;52.316;21.166;2022-12-07T12:04:33;99462.91;;;7.70;61.16
34124;BME280;13153;52.316;21.166;2022-12-07T12:07:02;99455.16;;;7.74;60.88
34124;BME280;13153;52.316;21.166;2022-12-07T12:09:47;99450.81;;;7.75;60.69
34124;BME280;13153;52.316;21.166;2022-12-07T12:21:19;99437.25;;;7.92;60.67
34124;BME280;13153;52.316;21.166;2022-12-07T12:24:02;99432.94;;;7.96;60.64
34124;BME280;13153;52.316;21.166;2022-12-07T12:26:33;99425.22;;;8.02;60.91
34124;BME280;13153;52.316;21.166;2022-12-07T12:29:04;99433.19;;;8.07;60.27
34124;BME280;13153;52.316;21.166;2022-12-07T12:31:40;99434.91;;;8.06;59.51
34124;BME280;13153;52.316;21.166;2022-12-07T12:34:38;99431.38;;;8.04;60.47
34124;BME280;13153;52.316;21.166;2022-12-07T12:42:54;99424.97;;;7.90;60.43
34124;BME280;13153;52.316;21.166;2022-12-07T12:45:29;99428.34;;;7.84;61.20
34124;BME280;13153;52.316;21.166;2022-12-07T12:48:28;99424.75;;;7.81;61.37
34124;BME280;13153;52.316;21.166;2022-12-07T12:51:35;99427.16;;;7.72;61.33
34124;BME280;13153;52.316;21.166;2022-12-07T12:54:11;99419.25;;;7.69;62.21
34124;BME280;13153;52.316;21.166;2022-12-07T13:02:26;99420.00;;;7.63;62.04
34124;BME280;13153;52.316;21.166;2022-12-07T13:05:00;99428.72;;;7.63;62.59
34124;BME280;13153;52.316;21.166;2022-12-07T13:15:46;99417.38;;;7.63;61.94
34124;BME280;13153;52.316;21.166;2022-12-07T13:18:36;99416.31;;;7.55;61.48
34124;BME280;13153;52.316;21.166;2022-12-07T13:27:06;99413.66;;;7.53;61.65
34124;BME280;13153;52.316;21.166;2022-12-07T13:29:16;99420.59;;;7.50;62.24
34124;BME280;13153;52.316;21.166;2022-12-07T13:31:56;99420.56;;;7.48;62.14
34124;BME280;13153;52.316;21.166;2022-12-07T13:34:41;99411.78;;;7.46;61.72
34124;BME280;13153;52.316;21.166;2022-12-07T13:37:31;99420.50;;;7.45;62.15
34124;BME280;13153;52.316;21.166;2022-12-07T13:40:11;99420.38;;;7.41;61.33
34124;BME280;13153;52.316;21.166;2022-12-07T13:42:42;99421.13;;;7.35;61.62
34124;BME280;13153;52.316;21.166;2022-12-07T13:45:31;99421.75;;;7.25;62.08
34124;BME280;13153;52.316;21.166;2022-12-07T13:48:46;99431.09;;;7.15;61.38
34124;BME280;13153;52.316;21.166;2022-12-07T13:51:39;99432.13;;;7.22;62.15
34124;BME280;13153;52.316;21.166;2022-12-07T13:54:12;99433.81;;;7.20;62.37
34124;BME280;13153;52.316;21.166;2022-12-07T13:56:39;99440.88;;;7.22;62.26
34124;BME280;13153;52.316;21.166;2022-12-07T13:59:21;99432.13;;;7.22;62.66
34124;BME280;13153;52.316;21.166;2022-12-07T14:01:50;99427.00;;;7.26;62.38
34124;BME280;13153;52.316;21.166;2022-12-07T14:04:37;99426.97;;;7.25;62.20
34124;BME280;13153;52.316;21.166;2022-12-07T14:07:28;99427.78;;;7.22;61.79
34124;BME280;13153;52.316;21.166;2022-12-07T14:09:56;99430.31;;;7.19;62.37
34124;BME280;13153;52.316;21.166;2022-12-07T14:12:24;99423.28;;;7.17;62.35
34124;BME280;13153;52.316;21.166;2022-12-07T14:14:51;99419.84;;;7.19;62.31
34124;BME280;13153;52.316;21.166;2022-12-07T14:17:21;99420.59;;;7.14;62.56
34124;BME280;13153;52.316;21.166;2022-12-07T14:20:01;99415.31;;;7.12;63.05
34124;BME280;13153;52.316;21.166;2022-12-07T14:22:38;99415.41;;;7.15;63.13
34124;BME280;13153;52.316;21.166;2022-12-07T14:27:54;99427.63;;;7.16;63.04
34124;BME280;13153;52.316;21.166;2022-12-07T14:30:29;99427.56;;;7.13;62.67
34124;BME280;13153;52.316;21.166;2022-12-07T14:33:14;99429.16;;;7.08;63.23
34124;BME280;13153;52.316;21.166;2022-12-07T14:35:39;99428.22;;;7.05;63.26
34124;BME280;13153;52.316;21.166;2022-12-07T14:38:05;99425.56;;;7.03;63.03
34124;BME280;13153;52.316;21.166;2022-12-07T14:40:32;99430.88;;;7.06;63.41
34124;BME280;13153;52.316;21.166;2022-12-07T14:43:04;99430.72;;;7.00;63.32
34124;BME280;13153;52.316;21.166;2022-12-07T14:45:31;99438.56;;;7.00;63.17
34124;BME280;13153;52.316;21.166;2022-12-07T14:47:56;99437.53;;;6.95;62.99
34124;BME280;13153;52.316;21.166;2022-12-07T14:50:22;99424.28;;;6.86;63.16
34124;BME280;13153;52.316;21.166;2022-12-07T14:52:54;99431.97;;;6.80;63.57
34124;BME280;13153;52.316;21.166;2022-12-07T14:55:30;99433.81;;;6.84;63.82
34124;BME280;13153;52.316;21.166;2022-12-07T14:57:57;99438.22;;;6.86;62.84